sensor_id;sensor_type;location;lat;lon;timestamp;P1;durP1;ratioP1;P2;durP2;ratioP2
52067;SDS011;60237;52.338;21.228;2023-07-31T00:01:59;862.05;;;778.08;;
52067;SDS011;60237;52.338;21.228;2023-07-31T00:04:26;861.30;;;776.63;;
52067;SDS011;60237;52.338;21.228;2023-07-31T00:06:53;865.90;;;779.38;;
52067;SDS011;60237;52.338;21.228;2023-07-31T00:09:19;864.28;;;779.15;;
52067;SDS011;60237;52.338;21.228;2023-07-31T00:11:46;852.28;;;766.83;;
52067;SDS011;60237;52.338;21.228;2023-07-31T00:14:12;858.70;;;770.20;;
52067;SDS011;60237;52.338;21.228;2023-07-31T00:16:39;855.97;;;771.63;;
52067;SDS011;60237;52.338;21.228;2023-07-31T00:19:06;849.75;;;766.03;;
52067;SDS011;60237;52.338;21.228;2023-07-31T00:21:33;844.88;;;760.15;;
52067;SDS011;60237;52.338;21.228;2023-07-31T00:23:59;852.58;;;768.47;;
52067;SDS011;60237;52.338;21.228;2023-07-31T00:26:26;865.38;;;775.80;;
52067;SDS011;60237;52.338;21.228;2023-07-31T00:28:52;842.83;;;759.80;;
52067;SDS011;60237;52.338;21.228;2023-07-31T00:31:19;835.92;;;752.35;;
52067;SDS011;60237;52.338;21.228;2023-07-31T00:33:47;852.67;;;766.88;;
52067;SDS011;60237;52.338;21.228;2023-07-31T00:36:14;856.13;;;770.35;;
52067;SDS011;60237;52.338;21.228;2023-07-31T00:38:41;848.33;;;762.20;;
52067;SDS011;60237;52.338;21.228;2023-07-31T00:41:08;855.58;;;770.85;;
52067;SDS011;60237;52.338;21.228;2023-07-31T00:43:35;847.90;;;763.28;;
52067;SDS011;60237;52.338;21.228;2023-07-31T00:46:01;842.17;;;757.40;;
52067;SDS011;60237;52.338;21.228;2023-07-31T00:48:28;846.42;;;761.60;;
52067;SDS011;60237;52.338;21.228;2023-07-31T00:50:54;852.92;;;767.33;;
52067;SDS011;60237;52.338;21.228;2023-07-31T00:53:21;842.92;;;756.67;;
52067;SDS011;60237;52.338;21.228;2023-07-31T00:55:49;849.70;;;764.95;;
52067;SDS011;60237;52.338;21.228;2023-07-31T00:58:15;834.60;;;750.30;;
52067;SDS011;60237;52.338;21.228;2023-07-31T01:00:42;851.08;;;766.95;;
52067;SDS011;60237;52.338;21.228;2023-07-31T01:03:09;832.38;;;749.55;;
52067;SDS011;60237;52.338;21.228;2023-07-31T01:08:27;833.83;;;746.72;;
52067;SDS011;60237;52.338;21.228;2023-07-31T01:10:56;834.33;;;751.85;;
52067;SDS011;60237;52.338;21.228;2023-07-31T01:13:27;841.00;;;756.78;;
52067;SDS011;60237;52.338;21.228;2023-07-31T01:15:54;832.25;;;748.97;;
52067;SDS011;60237;52.338;21.228;2023-07-31T01:18:20;831.08;;;745.83;;
52067;SDS011;60237;52.338;21.228;2023-07-31T01:20:48;836.97;;;751.65;;
52067;SDS011;60237;52.338;21.228;2023-07-31T01:23:23;833.97;;;746.72;;
52067;SDS011;60237;52.338;21.228;2023-07-31T01:26:11;832.90;;;748.58;;
52067;SDS011;60237;52.338;21.228;2023-07-31T01:28:47;826.40;;;741.58;;
52067;SDS011;60237;52.338;21.228;2023-07-31T01:31:18;813.53;;;732.35;;
52067;SDS011;60237;52.338;21.228;2023-07-31T01:33:46;832.08;;;746.58;;
52067;SDS011;60237;52.338;21.228;2023-07-31T01:36:13;824.72;;;740.70;;
52067;SDS011;60237;52.338;21.228;2023-07-31T01:38:40;837.53;;;752.78;;
52067;SDS011;60237;52.338;21.228;2023-07-31T01:41:07;828.80;;;744.90;;
52067;SDS011;60237;52.338;21.228;2023-07-31T01:43:34;823.25;;;739.30;;
52067;SDS011;60237;52.338;21.228;2023-07-31T01:46:01;820.67;;;738.00;;
52067;SDS011;60237;52.338;21.228;2023-07-31T01:48:27;819.00;;;735.97;;
52067;SDS011;60237;52.338;21.228;2023-07-31T01:50:54;819.47;;;733.75;;
52067;SDS011;60237;52.338;21.228;2023-07-31T01:53:20;836.05;;;748.90;;
52067;SDS011;60237;52.338;21.228;2023-07-31T01:55:47;828.58;;;744.35;;
52067;SDS011;60237;52.338;21.228;2023-07-31T01:58:14;823.25;;;740.33;;
52067;SDS011;60237;52.338;21.228;2023-07-31T02:03:44;816.35;;;734.80;;
52067;SDS011;60237;52.338;21.228;2023-07-31T02:06:11;815.05;;;735.28;;
52067;SDS011;60237;52.338;21.228;2023-07-31T02:08:37;828.53;;;745.92;;
52067;SDS011;60237;52.338;21.228;2023-07-31T02:11:04;819.85;;;739.63;;
52067;SDS011;60237;52.338;21.228;2023-07-31T02:13:31;824.75;;;743.90;;
52067;SDS011;60237;52.338;21.228;2023-07-31T02:15:58;815.80;;;735.90;;
52067;SDS011;60237;52.338;21.228;2023-07-31T02:18:25;824.38;;;744.30;;
52067;SDS011;60237;52.338;21.228;2023-07-31T02:20:52;831.05;;;748.30;;
52067;SDS011;60237;52.338;21.228;2023-07-31T02:23:19;841.33;;;753.85;;
52067;SDS011;60237;52.338;21.228;2023-07-31T02:25:45;818.90;;;737.45;;
52067;SDS011;60237;52.338;21.228;2023-07-31T02:28:13;811.42;;;732.40;;
52067;SDS011;60237;52.338;21.228;2023-07-31T02:30:39;816.33;;;735.67;;
52067;SDS011;60237;52.338;21.228;2023-07-31T02:33:08;803.75;;;724.30;;
52067;SDS011;60237;52.338;21.228;2023-07-31T02:35:34;821.50;;;739.47;;
52067;SDS011;60237;52.338;21.228;2023-07-31T02:38:01;806.58;;;727.50;;
52067;SDS011;60237;52.338;21.228;2023-07-31T02:40:28;808.78;;;729.03;;
52067;SDS011;60237;52.338;21.228;2023-07-31T02:42:54;808.08;;;728.28;;
52067;SDS011;60237;52.338;21.228;2023-07-31T02:45:21;801.22;;;721.50;;
52067;SDS011;60237;52.338;21.228;2023-07-31T02:47:47;811.30;;;729.90;;
52067;SDS011;60237;52.338;21.228;2023-07-31T02:50:14;810.67;;;726.80;;
52067;SDS011;60237;52.338;21.228;2023-07-31T02:52:40;807.55;;;727.58;;
52067;SDS011;60237;52.338;21.228;2023-07-31T02:55:07;798.72;;;718.38;;
52067;SDS011;60237;52.338;21.228;2023-07-31T02:57:34;795.90;;;715.63;;
52067;SDS011;60237;52.338;21.228;2023-07-31T03:00:01;798.60;;;719.22;;
52067;SDS011;60237;52.338;21.228;2023-07-31T03:02:29;819.72;;;735.42;;
52067;SDS011;60237;52.338;21.228;2023-07-31T03:04:55;811.67;;;731.92;;
52067;SDS011;60237;52.338;21.228;2023-07-31T03:07:22;791.58;;;712.97;;
52067;SDS011;60237;52.338;21.228;2023-07-31T03:09:49;808.67;;;726.95;;
52067;SDS011;60237;52.338;21.228;2023-07-31T03:12:15;803.67;;;722.85;;
52067;SDS011;60237;52.338;21.228;2023-07-31T03:14:42;809.40;;;729.20;;
52067;SDS011;60237;52.338;21.228;2023-07-31T03:17:08;800.28;;;720.70;;
52067;SDS011;60237;52.338;21.228;2023-07-31T03:19:35;811.50;;;728.55;;
52067;SDS011;60237;52.338;21.228;2023-07-31T03:22:02;811.33;;;731.85;;
52067;SDS011;60237;52.338;21.228;2023-07-31T03:24:29;815.97;;;735.58;;
52067;SDS011;60237;52.338;21.228;2023-07-31T03:26:56;811.58;;;731.85;;
52067;SDS011;60237;52.338;21.228;2023-07-31T03:29:22;832.47;;;747.60;;
52067;SDS011;60237;52.338;21.228;2023-07-31T03:31:51;813.85;;;734.20;;
52067;SDS011;60237;52.338;21.228;2023-07-31T03:34:18;820.90;;;739.88;;
52067;SDS011;60237;52.338;21.228;2023-07-31T03:36:45;822.85;;;743.83;;
52067;SDS011;60237;52.338;21.228;2023-07-31T03:39:11;839.67;;;758.50;;
52067;SDS011;60237;52.338;21.228;2023-07-31T03:41:38;831.28;;;749.25;;
52067;SDS011;60237;52.338;21.228;2023-07-31T03:44:05;822.47;;;743.85;;
52067;SDS011;60237;52.338;21.228;2023-07-31T03:46:31;834.65;;;754.42;;
52067;SDS011;60237;52.338;21.228;2023-07-31T03:48:58;831.40;;;749.00;;
52067;SDS011;60237;52.338;21.228;2023-07-31T03:51:25;823.97;;;743.08;;
52067;SDS011;60237;52.338;21.228;2023-07-31T03:53:52;834.15;;;752.75;;
52067;SDS011;60237;52.338;21.228;2023-07-31T03:56:18;838.42;;;754.63;;
52067;SDS011;60237;52.338;21.228;2023-07-31T03:58:45;830.95;;;750.00;;
52067;SDS011;60237;52.338;21.228;2023-07-31T04:01:11;839.80;;;758.20;;
52067;SDS011;60237;52.338;21.228;2023-07-31T04:03:38;849.95;;;767.47;;
52067;SDS011;60237;52.338;21.228;2023-07-31T04:06:05;838.70;;;756.60;;
52067;SDS011;60237;52.338;21.228;2023-07-31T04:08:33;833.55;;;751.80;;
52067;SDS011;60237;52.338;21.228;2023-07-31T04:11:00;841.33;;;761.15;;
52067;SDS011;60237;52.338;21.228;2023-07-31T04:13:26;842.53;;;762.78;;
52067;SDS011;60237;52.338;21.228;2023-07-31T04:15:54;834.13;;;754.20;;
52067;SDS011;60237;52.338;21.228;2023-07-31T04:18:21;857.60;;;774.65;;
52067;SDS011;60237;52.338;21.228;2023-07-31T04:20:48;853.53;;;771.13;;
52067;SDS011;60237;52.338;21.228;2023-07-31T04:23:14;849.70;;;766.67;;
52067;SDS011;60237;52.338;21.228;2023-07-31T04:25:41;851.47;;;769.92;;
52067;SDS011;60237;52.338;21.228;2023-07-31T04:28:08;849.40;;;769.35;;
52067;SDS011;60237;52.338;21.228;2023-07-31T04:30:34;849.30;;;768.08;;
52067;SDS011;60237;52.338;21.228;2023-07-31T04:33:01;852.75;;;769.85;;
52067;SDS011;60237;52.338;21.228;2023-07-31T04:35:29;869.20;;;783.25;;
52067;SDS011;60237;52.338;21.228;2023-07-31T04:37:55;851.80;;;771.10;;
52067;SDS011;60237;52.338;21.228;2023-07-31T04:40:22;851.00;;;770.25;;
52067;SDS011;60237;52.338;21.228;2023-07-31T04:42:49;848.00;;;766.67;;
52067;SDS011;60237;52.338;21.228;2023-07-31T04:45:15;850.30;;;768.28;;
52067;SDS011;60237;52.338;21.228;2023-07-31T04:47:42;848.10;;;766.35;;
52067;SDS011;60237;52.338;21.228;2023-07-31T04:50:09;847.25;;;766.80;;
52067;SDS011;60237;52.338;21.228;2023-07-31T04:52:35;849.25;;;766.60;;
52067;SDS011;60237;52.338;21.228;2023-07-31T04:55:02;851.35;;;770.80;;
52067;SDS011;60237;52.338;21.228;2023-07-31T04:57:29;851.08;;;769.50;;
52067;SDS011;60237;52.338;21.228;2023-07-31T04:59:55;844.30;;;763.03;;
52067;SDS011;60237;52.338;21.228;2023-07-31T05:02:22;886.95;;;797.58;;
52067;SDS011;60237;52.338;21.228;2023-07-31T05:04:49;857.67;;;776.20;;
52067;SDS011;60237;52.338;21.228;2023-07-31T05:07:15;842.60;;;762.45;;
52067;SDS011;60237;52.338;21.228;2023-07-31T05:09:43;858.60;;;777.13;;
52067;SDS011;60237;52.338;21.228;2023-07-31T05:12:10;860.10;;;778.40;;
52067;SDS011;60237;52.338;21.228;2023-07-31T05:14:36;868.53;;;784.50;;
52067;SDS011;60237;52.338;21.228;2023-07-31T05:17:03;864.60;;;782.45;;
52067;SDS011;60237;52.338;21.228;2023-07-31T05:19:30;865.10;;;784.55;;
52067;SDS011;60237;52.338;21.228;2023-07-31T05:21:56;874.10;;;791.45;;
52067;SDS011;60237;52.338;21.228;2023-07-31T05:24:23;879.58;;;794.50;;
52067;SDS011;60237;52.338;21.228;2023-07-31T05:26:50;870.35;;;787.97;;
52067;SDS011;60237;52.338;21.228;2023-07-31T05:29:16;886.60;;;802.50;;
52067;SDS011;60237;52.338;21.228;2023-07-31T05:31:43;892.03;;;808.47;;
52067;SDS011;60237;52.338;21.228;2023-07-31T05:34:09;887.50;;;804.42;;
52067;SDS011;60237;52.338;21.228;2023-07-31T05:36:36;895.33;;;811.35;;
52067;SDS011;60237;52.338;21.228;2023-07-31T05:39:03;881.92;;;799.65;;
52067;SDS011;60237;52.338;21.228;2023-07-31T05:41:33;891.30;;;807.20;;
52067;SDS011;60237;52.338;21.228;2023-07-31T05:44:01;879.80;;;797.53;;
52067;SDS011;60237;52.338;21.228;2023-07-31T05:46:27;887.75;;;805.13;;
52067;SDS011;60237;52.338;21.228;2023-07-31T05:48:54;886.15;;;803.35;;
52067;SDS011;60237;52.338;21.228;2023-07-31T05:51:21;896.85;;;811.28;;
52067;SDS011;60237;52.338;21.228;2023-07-31T05:53:47;902.17;;;817.13;;
52067;SDS011;60237;52.338;21.228;2023-07-31T05:56:14;906.40;;;821.58;;
52067;SDS011;60237;52.338;21.228;2023-07-31T05:58:43;919.08;;;832.42;;
52067;SDS011;60237;52.338;21.228;2023-07-31T06:01:10;905.33;;;821.50;;
52067;SDS011;60237;52.338;21.228;2023-07-31T06:03:37;905.92;;;822.80;;
52067;SDS011;60237;52.338;21.228;2023-07-31T06:06:03;932.03;;;841.75;;
52067;SDS011;60237;52.338;21.228;2023-07-31T06:08:30;928.30;;;839.35;;
52067;SDS011;60237;52.338;21.228;2023-07-31T06:10:57;923.30;;;839.55;;
52067;SDS011;60237;52.338;21.228;2023-07-31T06:13:23;925.53;;;840.97;;
52067;SDS011;60237;52.338;21.228;2023-07-31T06:15:50;945.38;;;859.72;;
52067;SDS011;60237;52.338;21.228;2023-07-31T06:18:17;923.55;;;839.72;;
52067;SDS011;60237;52.338;21.228;2023-07-31T06:20:44;942.50;;;855.03;;
52067;SDS011;60237;52.338;21.228;2023-07-31T06:23:10;942.90;;;858.15;;
52067;SDS011;60237;52.338;21.228;2023-07-31T06:25:37;951.08;;;863.65;;
52067;SDS011;60237;52.338;21.228;2023-07-31T06:28:03;945.03;;;859.88;;
52067;SDS011;60237;52.338;21.228;2023-07-31T06:30:30;938.00;;;853.30;;
52067;SDS011;60237;52.338;21.228;2023-07-31T06:32:57;956.50;;;866.47;;
52067;SDS011;60237;52.338;21.228;2023-07-31T06:35:24;951.05;;;862.78;;
52067;SDS011;60237;52.338;21.228;2023-07-31T06:37:50;945.33;;;859.28;;
52067;SDS011;60237;52.338;21.228;2023-07-31T06:40:17;950.78;;;865.25;;
52067;SDS011;60237;52.338;21.228;2023-07-31T06:42:45;933.85;;;848.58;;
52067;SDS011;60237;52.338;21.228;2023-07-31T06:45:12;941.25;;;855.25;;
52067;SDS011;60237;52.338;21.228;2023-07-31T06:47:38;942.53;;;854.85;;
52067;SDS011;60237;52.338;21.228;2023-07-31T06:50:05;930.63;;;844.72;;
52067;SDS011;60237;52.338;21.228;2023-07-31T06:52:32;929.92;;;842.28;;
52067;SDS011;60237;52.338;21.228;2023-07-31T06:55:03;921.70;;;836.85;;
52067;SDS011;60237;52.338;21.228;2023-07-31T06:57:30;913.75;;;829.97;;
52067;SDS011;60237;52.338;21.228;2023-07-31T06:59:57;916.58;;;832.72;;
52067;SDS011;60237;52.338;21.228;2023-07-31T07:02:24;932.05;;;844.20;;
52067;SDS011;60237;52.338;21.228;2023-07-31T07:04:50;905.47;;;822.88;;
52067;SDS011;60237;52.338;21.228;2023-07-31T07:07:17;908.00;;;824.42;;
52067;SDS011;60237;52.338;21.228;2023-07-31T07:09:44;904.85;;;821.03;;
52067;SDS011;60237;52.338;21.228;2023-07-31T07:12:10;897.00;;;814.08;;
52067;SDS011;60237;52.338;21.228;2023-07-31T07:14:37;911.47;;;827.25;;
52067;SDS011;60237;52.338;21.228;2023-07-31T07:17:04;912.30;;;825.53;;
52067;SDS011;60237;52.338;21.228;2023-07-31T07:19:31;908.47;;;824.10;;
52067;SDS011;60237;52.338;21.228;2023-07-31T07:21:57;900.00;;;815.60;;
52067;SDS011;60237;52.338;21.228;2023-07-31T07:24:26;907.20;;;821.97;;
52067;SDS011;60237;52.338;21.228;2023-07-31T07:26:52;903.88;;;818.28;;
52067;SDS011;60237;52.338;21.228;2023-07-31T07:29:20;907.90;;;820.60;;
52067;SDS011;60237;52.338;21.228;2023-07-31T07:31:47;907.25;;;822.58;;
52067;SDS011;60237;52.338;21.228;2023-07-31T07:34:14;910.50;;;825.40;;
52067;SDS011;60237;52.338;21.228;2023-07-31T07:36:41;904.03;;;819.00;;
52067;SDS011;60237;52.338;21.228;2023-07-31T07:39:09;918.42;;;833.38;;
52067;SDS011;60237;52.338;21.228;2023-07-31T07:41:36;930.83;;;844.30;;
52067;SDS011;60237;52.338;21.228;2023-07-31T07:44:03;951.55;;;864.75;;
52067;SDS011;60237;52.338;21.228;2023-07-31T07:46:30;971.88;;;883.88;;
52067;SDS011;60237;52.338;21.228;2023-07-31T07:48:56;1016.50;;;924.20;;
52067;SDS011;60237;52.338;21.228;2023-07-31T07:51:23;1024.38;;;933.35;;
52067;SDS011;60237;52.338;21.228;2023-07-31T07:53:50;1023.42;;;930.88;;
52067;SDS011;60237;52.338;21.228;2023-07-31T07:56:16;1025.70;;;934.83;;
52067;SDS011;60237;52.338;21.228;2023-07-31T07:58:43;1016.85;;;926.00;;
52067;SDS011;60237;52.338;21.228;2023-07-31T08:01:10;1018.63;;;927.20;;
52067;SDS011;60237;52.338;21.228;2023-07-31T08:03:36;1024.45;;;931.22;;
52067;SDS011;60237;52.338;21.228;2023-07-31T08:06:03;1039.95;;;946.90;;
52067;SDS011;60237;52.338;21.228;2023-07-31T08:08:30;1042.82;;;944.63;;
52067;SDS011;60237;52.338;21.228;2023-07-31T08:10:57;1025.47;;;934.60;;
52067;SDS011;60237;52.338;21.228;2023-07-31T08:13:24;1029.28;;;938.78;;
52067;SDS011;60237;52.338;21.228;2023-07-31T08:15:50;1031.32;;;940.42;;
52067;SDS011;60237;52.338;21.228;2023-07-31T08:18:17;1033.90;;;940.00;;
52067;SDS011;60237;52.338;21.228;2023-07-31T08:20:44;1054.18;;;959.08;;
52067;SDS011;60237;52.338;21.228;2023-07-31T08:23:11;1042.28;;;949.35;;
52067;SDS011;60237;52.338;21.228;2023-07-31T08:25:37;1046.95;;;953.75;;
52067;SDS011;60237;52.338;21.228;2023-07-31T08:28:04;1047.97;;;954.95;;
52067;SDS011;60237;52.338;21.228;2023-07-31T08:30:32;1053.15;;;960.35;;
52067;SDS011;60237;52.338;21.228;2023-07-31T08:32:59;1056.57;;;962.72;;
52067;SDS011;60237;52.338;21.228;2023-07-31T08:35:27;1071.97;;;970.22;;
52067;SDS011;60237;52.338;21.228;2023-07-31T08:37:54;1062.43;;;968.28;;
52067;SDS011;60237;52.338;21.228;2023-07-31T08:40:21;1062.03;;;968.13;;
52067;SDS011;60237;52.338;21.228;2023-07-31T08:42:49;1058.32;;;966.30;;
52067;SDS011;60237;52.338;21.228;2023-07-31T08:45:17;1060.60;;;968.10;;
52067;SDS011;60237;52.338;21.228;2023-07-31T08:47:44;1059.75;;;965.22;;
52067;SDS011;60237;52.338;21.228;2023-07-31T08:50:14;1060.15;;;967.03;;
52067;SDS011;60237;52.338;21.228;2023-07-31T08:52:41;1068.10;;;973.15;;
52067;SDS011;60237;52.338;21.228;2023-07-31T08:55:08;1063.68;;;970.78;;
52067;SDS011;60237;52.338;21.228;2023-07-31T08:57:35;1075.43;;;981.45;;
52067;SDS011;60237;52.338;21.228;2023-07-31T09:00:03;1072.32;;;978.47;;
52067;SDS011;60237;52.338;21.228;2023-07-31T09:02:31;1081.28;;;983.97;;
52067;SDS011;60237;52.338;21.228;2023-07-31T09:05:01;1069.50;;;977.20;;
52067;SDS011;60237;52.338;21.228;2023-07-31T09:07:29;1093.28;;;995.78;;
52067;SDS011;60237;52.338;21.228;2023-07-31T09:09:57;1071.75;;;978.60;;
52067;SDS011;60237;52.338;21.228;2023-07-31T09:12:25;1086.43;;;990.22;;
52067;SDS011;60237;52.338;21.228;2023-07-31T09:14:51;1063.30;;;971.50;;
52067;SDS011;60237;52.338;21.228;2023-07-31T09:17:28;1066.07;;;972.00;;
52067;SDS011;60237;52.338;21.228;2023-07-31T09:19:55;1059.45;;;968.20;;
52067;SDS011;60237;52.338;21.228;2023-07-31T09:22:31;1055.95;;;963.97;;
52067;SDS011;60237;52.338;21.228;2023-07-31T09:25:06;1065.22;;;973.70;;
52067;SDS011;60237;52.338;21.228;2023-07-31T09:27:46;1055.68;;;964.70;;
52067;SDS011;60237;52.338;21.228;2023-07-31T09:30:14;1070.88;;;978.58;;
52067;SDS011;60237;52.338;21.228;2023-07-31T09:32:41;1071.30;;;978.58;;
52067;SDS011;60237;52.338;21.228;2023-07-31T09:35:18;1051.43;;;959.40;;
52067;SDS011;60237;52.338;21.228;2023-07-31T09:38:05;1062.38;;;971.13;;
52067;SDS011;60237;52.338;21.228;2023-07-31T09:40:33;1059.28;;;967.42;;
52067;SDS011;60237;52.338;21.228;2023-07-31T09:43:01;1067.35;;;974.17;;
52067;SDS011;60237;52.338;21.228;2023-07-31T09:45:28;1062.55;;;967.78;;
52067;SDS011;60237;52.338;21.228;2023-07-31T09:48:10;1058.70;;;965.05;;
52067;SDS011;60237;52.338;21.228;2023-07-31T09:50:41;1055.57;;;959.60;;
52067;SDS011;60237;52.338;21.228;2023-07-31T09:53:08;1065.03;;;968.10;;
52067;SDS011;60237;52.338;21.228;2023-07-31T09:55:35;1060.70;;;966.85;;
52067;SDS011;60237;52.338;21.228;2023-07-31T09:58:06;1077.53;;;980.25;;
52067;SDS011;60237;52.338;21.228;2023-07-31T10:00:33;1074.32;;;978.80;;
52067;SDS011;60237;52.338;21.228;2023-07-31T10:03:07;1074.93;;;978.30;;
52067;SDS011;60237;52.338;21.228;2023-07-31T10:05:36;1080.28;;;979.85;;
52067;SDS011;60237;52.338;21.228;2023-07-31T10:08:03;1071.68;;;977.50;;
52067;SDS011;60237;52.338;21.228;2023-07-31T10:10:30;1079.05;;;985.90;;
52067;SDS011;60237;52.338;21.228;2023-07-31T10:12:57;1081.18;;;988.00;;
52067;SDS011;60237;52.338;21.228;2023-07-31T10:15:25;1077.32;;;985.50;;
52067;SDS011;60237;52.338;21.228;2023-07-31T10:17:52;1083.15;;;989.25;;
52067;SDS011;60237;52.338;21.228;2023-07-31T10:20:20;1084.97;;;989.45;;
52067;SDS011;60237;52.338;21.228;2023-07-31T10:22:47;1082.75;;;989.28;;
52067;SDS011;60237;52.338;21.228;2023-07-31T10:25:15;1085.75;;;991.22;;
52067;SDS011;60237;52.338;21.228;2023-07-31T10:27:42;1074.35;;;981.97;;
52067;SDS011;60237;52.338;21.228;2023-07-31T10:30:12;1077.85;;;984.03;;
52067;SDS011;60237;52.338;21.228;2023-07-31T10:32:44;1087.60;;;993.33;;
52067;SDS011;60237;52.338;21.228;2023-07-31T10:35:12;1087.65;;;993.67;;
52067;SDS011;60237;52.338;21.228;2023-07-31T10:37:39;1094.38;;;997.25;;
52067;SDS011;60237;52.338;21.228;2023-07-31T10:40:07;1089.40;;;995.58;;
52067;SDS011;60237;52.338;21.228;2023-07-31T10:42:37;1086.47;;;992.85;;
52067;SDS011;60237;52.338;21.228;2023-07-31T10:45:06;1090.50;;;994.97;;
52067;SDS011;60237;52.338;21.228;2023-07-31T10:47:42;1105.57;;;999.90;;
52067;SDS011;60237;52.338;21.228;2023-07-31T10:50:12;1108.82;;;999.90;;
52067;SDS011;60237;52.338;21.228;2023-07-31T10:52:39;1092.60;;;996.92;;
52067;SDS011;60237;52.338;21.228;2023-07-31T10:57:47;1092.47;;;995.92;;
52067;SDS011;60237;52.338;21.228;2023-07-31T11:00:17;1095.93;;;998.15;;
52067;SDS011;60237;52.338;21.228;2023-07-31T11:02:55;1090.45;;;995.22;;
52067;SDS011;60237;52.338;21.228;2023-07-31T11:08:12;1077.82;;;984.28;;
52067;SDS011;60237;52.338;21.228;2023-07-31T11:10:39;1081.22;;;988.78;;
52067;SDS011;60237;52.338;21.228;2023-07-31T11:13:05;1094.75;;;997.78;;
52067;SDS011;60237;52.338;21.228;2023-07-31T11:15:32;1091.72;;;996.70;;
52067;SDS011;60237;52.338;21.228;2023-07-31T11:18:00;1084.18;;;991.03;;
52067;SDS011;60237;52.338;21.228;2023-07-31T11:20:27;1098.03;;;998.90;;
52067;SDS011;60237;52.338;21.228;2023-07-31T11:22:57;1091.32;;;995.28;;
52067;SDS011;60237;52.338;21.228;2023-07-31T11:25:28;1086.80;;;993.85;;
52067;SDS011;60237;52.338;21.228;2023-07-31T11:27:54;1086.53;;;992.97;;
52067;SDS011;60237;52.338;21.228;2023-07-31T11:30:22;1084.53;;;990.90;;
52067;SDS011;60237;52.338;21.228;2023-07-31T11:32:49;1096.05;;;999.20;;
52067;SDS011;60237;52.338;21.228;2023-07-31T11:35:17;1088.18;;;994.45;;
52067;SDS011;60237;52.338;21.228;2023-07-31T11:37:44;1095.70;;;998.28;;
52067;SDS011;60237;52.338;21.228;2023-07-31T11:40:11;1089.72;;;994.78;;
52067;SDS011;60237;52.338;21.228;2023-07-31T11:42:38;1098.80;;;999.22;;
52067;SDS011;60237;52.338;21.228;2023-07-31T11:45:08;1120.78;;;999.90;;
52067;SDS011;60237;52.338;21.228;2023-07-31T11:47:37;1106.97;;;999.90;;
52067;SDS011;60237;52.338;21.228;2023-07-31T11:50:05;1105.05;;;999.90;;
52067;SDS011;60237;52.338;21.228;2023-07-31T11:52:33;1104.07;;;999.90;;
52067;SDS011;60237;52.338;21.228;2023-07-31T11:55:00;1089.90;;;995.53;;
52067;SDS011;60237;52.338;21.228;2023-07-31T11:57:27;1106.28;;;999.90;;
52067;SDS011;60237;52.338;21.228;2023-07-31T11:59:55;1107.35;;;999.90;;
52067;SDS011;60237;52.338;21.228;2023-07-31T12:02:21;1116.95;;;999.90;;
52067;SDS011;60237;52.338;21.228;2023-07-31T12:04:48;1097.50;;;998.78;;
52067;SDS011;60237;52.338;21.228;2023-07-31T12:07:17;1116.03;;;999.90;;
52067;SDS011;60237;52.338;21.228;2023-07-31T12:10:17;1106.32;;;999.90;;
52067;SDS011;60237;52.338;21.228;2023-07-31T12:12:37;1110.93;;;999.90;;
52067;SDS011;60237;52.338;21.228;2023-07-31T12:15:12;1125.03;;;999.90;;
52067;SDS011;60237;52.338;21.228;2023-07-31T12:17:39;1103.47;;;999.90;;
52067;SDS011;60237;52.338;21.228;2023-07-31T12:20:06;1099.13;;;999.53;;
52067;SDS011;60237;52.338;21.228;2023-07-31T12:22:33;1107.45;;;999.90;;
52067;SDS011;60237;52.338;21.228;2023-07-31T12:25:00;1103.07;;;999.90;;
52067;SDS011;60237;52.338;21.228;2023-07-31T12:27:32;1100.88;;;997.78;;
52067;SDS011;60237;52.338;21.228;2023-07-31T12:29:58;1085.75;;;989.95;;
52067;SDS011;60237;52.338;21.228;2023-07-31T12:32:25;1091.03;;;991.85;;
52067;SDS011;60237;52.338;21.228;2023-07-31T12:34:55;1096.35;;;998.35;;
52067;SDS011;60237;52.338;21.228;2023-07-31T12:37:25;1088.03;;;990.03;;
52067;SDS011;60237;52.338;21.228;2023-07-31T12:39:52;1076.43;;;981.33;;
52067;SDS011;60237;52.338;21.228;2023-07-31T12:42:19;1079.78;;;983.15;;
52067;SDS011;60237;52.338;21.228;2023-07-31T12:44:46;1087.47;;;988.58;;
52067;SDS011;60237;52.338;21.228;2023-07-31T12:47:12;1069.47;;;972.75;;
52067;SDS011;60237;52.338;21.228;2023-07-31T12:49:41;1075.38;;;977.08;;
52067;SDS011;60237;52.338;21.228;2023-07-31T12:52:08;1065.57;;;970.88;;
52067;SDS011;60237;52.338;21.228;2023-07-31T12:54:34;1067.65;;;970.17;;
52067;SDS011;60237;52.338;21.228;2023-07-31T12:57:02;1069.50;;;972.70;;
52067;SDS011;60237;52.338;21.228;2023-07-31T12:59:28;1076.25;;;976.40;;
52067;SDS011;60237;52.338;21.228;2023-07-31T13:01:55;1071.78;;;976.10;;
52067;SDS011;60237;52.338;21.228;2023-07-31T13:04:21;1066.68;;;970.78;;
52067;SDS011;60237;52.338;21.228;2023-07-31T13:06:48;1063.88;;;969.83;;
52067;SDS011;60237;52.338;21.228;2023-07-31T13:09:15;1065.70;;;969.28;;
52067;SDS011;60237;52.338;21.228;2023-07-31T13:11:43;1072.13;;;976.15;;
52067;SDS011;60237;52.338;21.228;2023-07-31T13:14:10;1065.63;;;971.92;;
52067;SDS011;60237;52.338;21.228;2023-07-31T13:16:37;1060.75;;;964.40;;
52067;SDS011;60237;52.338;21.228;2023-07-31T13:19:04;1059.03;;;965.03;;
52067;SDS011;60237;52.338;21.228;2023-07-31T13:21:31;1061.38;;;966.65;;
52067;SDS011;60237;52.338;21.228;2023-07-31T13:23:57;1062.38;;;968.17;;
52067;SDS011;60237;52.338;21.228;2023-07-31T13:26:25;1067.68;;;969.95;;
52067;SDS011;60237;52.338;21.228;2023-07-31T13:28:52;1068.32;;;974.13;;
52067;SDS011;60237;52.338;21.228;2023-07-31T13:31:18;1062.28;;;967.85;;
52067;SDS011;60237;52.338;21.228;2023-07-31T13:33:46;1091.50;;;996.05;;
52067;SDS011;60237;52.338;21.228;2023-07-31T13:36:12;1100.95;;;999.65;;
52067;SDS011;60237;52.338;21.228;2023-07-31T13:38:40;1093.53;;;996.83;;
52067;SDS011;60237;52.338;21.228;2023-07-31T13:41:07;1086.78;;;992.55;;
52067;SDS011;60237;52.338;21.228;2023-07-31T13:43:33;1082.13;;;988.53;;
52067;SDS011;60237;52.338;21.228;2023-07-31T13:46:00;1090.72;;;994.13;;
52067;SDS011;60237;52.338;21.228;2023-07-31T13:48:34;1101.35;;;999.03;;
52067;SDS011;60237;52.338;21.228;2023-07-31T13:51:01;1092.72;;;996.00;;
52067;SDS011;60237;52.338;21.228;2023-07-31T13:53:27;1088.47;;;991.67;;